createdAt,value
2023-04-30T00:00:13.266Z,6.65
2023-04-30T00:05:34.792Z,7.15
2023-04-30T00:10:56.175Z,7.10
2023-04-30T00:16:17.782Z,7.32
2023-04-30T00:21:39.037Z,7.80
2023-04-30T00:27:00.291Z,7.35
2023-04-30T00:32:22.125Z,8.15
2023-04-30T00:37:43.724Z,8.10
2023-04-30T00:43:05.459Z,7.65
2023-04-30T00:48:27.612Z,7.95
2023-04-30T00:53:49.317Z,6.55
2023-04-30T00:59:11.241Z,7.93
2023-04-30T01:04:32.733Z,7.18
2023-04-30T01:09:54.517Z,6.47
2023-04-30T01:15:37.730Z,6.07
2023-04-30T01:21:06.556Z,6.38
2023-04-30T01:27:23.977Z,6.22
2023-04-30T01:32:45.622Z,6.07
2023-04-30T01:38:21.036Z,5.80
2023-04-30T01:43:45.138Z,5.38
2023-04-30T01:55:01.035Z,5.25
2023-04-30T02:00:22.638Z,5.10
2023-04-30T02:05:45.366Z,5.32
2023-04-30T02:11:06.606Z,5.75
2023-04-30T02:16:28.117Z,4.70
2023-04-30T02:21:49.517Z,5.10
2023-04-30T02:27:10.627Z,5.68
2023-04-30T02:32:32.279Z,4.78
2023-04-30T02:37:53.610Z,5.43
2023-04-30T02:43:14.983Z,5.10
2023-04-30T02:48:36.506Z,5.45
2023-04-30T02:53:57.776Z,6.63
2023-04-30T02:59:19.116Z,5.60
2023-04-30T03:04:40.764Z,6.28
2023-04-30T03:10:02.088Z,6.40
2023-04-30T03:15:23.390Z,5.90
2023-04-30T03:20:44.960Z,4.78
2023-04-30T03:26:06.852Z,5.10
2023-04-30T03:31:28.191Z,4.95
2023-04-30T03:36:49.422Z,5.13
2023-04-30T03:42:11.036Z,5.50
2023-04-30T03:47:32.399Z,6.13
2023-04-30T03:52:53.638Z,5.35
2023-04-30T03:58:15.389Z,6.05
2023-04-30T04:03:36.498Z,6.22
2023-04-30T04:08:57.992Z,6.05
2023-04-30T04:14:19.292Z,6.47
2023-04-30T04:19:41.432Z,5.57
2023-04-30T04:25:02.959Z,5.88
2023-04-30T04:30:26.408Z,6.33
2023-04-30T04:35:48.389Z,6.05
2023-04-30T04:41:09.831Z,6.30
2023-04-30T04:46:32.650Z,6.78
2023-04-30T04:51:54.252Z,6.22
2023-04-30T04:57:15.554Z,7.35
2023-04-30T05:02:36.973Z,7.65
2023-04-30T05:07:58.358Z,6.60
2023-04-30T05:13:19.774Z,7.57
2023-04-30T05:18:40.928Z,8.13
2023-04-30T05:24:03.020Z,8.88
2023-04-30T05:29:24.420Z,8.23
2023-04-30T05:34:45.811Z,8.55
2023-04-30T05:40:08.507Z,9.60
2023-04-30T05:45:29.759Z,8.95
2023-04-30T05:50:51.122Z,9.15
2023-04-30T05:56:12.398Z,9.07
2023-04-30T06:01:34.046Z,9.20
2023-04-30T06:06:55.460Z,8.68
2023-04-30T06:12:16.889Z,6.82
2023-04-30T06:17:38.427Z,6.78
2023-04-30T06:22:59.920Z,6.10
2023-04-30T06:28:21.301Z,6.25
2023-04-30T06:33:42.728Z,5.07
2023-04-30T06:39:04.134Z,5.38
2023-04-30T06:44:25.565Z,4.80
2023-04-30T06:49:46.901Z,3.97
2023-04-30T06:55:08.733Z,4.28
2023-04-30T07:00:29.945Z,3.15
2023-04-30T07:05:51.347Z,3.40
2023-04-30T07:11:13.000Z,2.55
2023-04-30T07:16:35.173Z,3.28
2023-04-30T07:21:56.306Z,2.33
2023-04-30T07:27:17.692Z,2.50
2023-04-30T07:32:39.409Z,2.72
2023-04-30T07:38:00.588Z,2.25
2023-04-30T07:43:21.961Z,2.28
2023-04-30T07:48:43.476Z,2.28
2023-04-30T07:54:05.260Z,2.20
2023-04-30T07:59:26.494Z,2.40
2023-04-30T08:04:47.926Z,2.42
2023-04-30T08:10:09.529Z,2.65
2023-04-30T08:15:31.147Z,2.20
2023-04-30T08:20:52.628Z,2.20
2023-04-30T08:26:14.040Z,2.25
2023-04-30T08:31:36.164Z,2.25
2023-04-30T08:36:57.687Z,2.08
2023-04-30T08:42:21.771Z,2.50
2023-04-30T08:47:44.760Z,2.40
2023-04-30T08:53:08.514Z,1.98
2023-04-30T09:03:50.870Z,2.08
2023-04-30T09:09:15.143Z,1.88
2023-04-30T09:14:36.592Z,2.00
2023-04-30T09:20:14.684Z,2.80
2023-04-30T09:25:43.529Z,1.92
2023-04-30T09:31:04.769Z,2.15
2023-04-30T09:36:26.053Z,1.83
2023-04-30T09:41:47.446Z,1.90
2023-04-30T09:47:19.781Z,2.60
2023-04-30T09:52:41.090Z,2.10
2023-04-30T09:58:07.106Z,1.98
2023-04-30T10:03:28.623Z,2.15
2023-04-30T10:08:57.196Z,2.00
2023-04-30T10:14:20.555Z,2.10
2023-04-30T10:19:48.028Z,2.28
2023-04-30T10:25:10.429Z,2.53
2023-04-30T10:30:32.485Z,2.20
